sensor_id;sensor_type;location;lat;lon;timestamp;pressure;altitude;pressure_sealevel;temperature;humidity
61740;BME280;47645;45.288;12.038;2023-05-02T00:02:06;1012.9709054629425;;;12.659375;100
61740;BME280;47645;45.288;12.038;2023-05-02T00:12:07;1012.8262381681235;;;12.7103515625;100
61740;BME280;47645;45.288;12.038;2023-05-02T00:22:07;1012.779291144248;;;12.6185546875;100
61740;BME280;47645;45.288;12.038;2023-05-02T00:32:08;1012.8441884561203;;;12.76640625;100
61740;BME280;47645;45.288;12.038;2023-05-02T00:42:09;1012.5674881246013;;;12.7001953125;100
61740;BME280;47645;45.288;12.038;2023-05-02T00:52:10;1012.5449703621641;;;12.7869140625;100
61740;BME280;47645;45.288;12.038;2023-05-02T01:02:24;1012.3953870616708;;;12.8123046875;100
61740;BME280;47645;45.288;12.038;2023-05-02T01:12:17;1012.4459377357832;;;12.8123046875;100
61740;BME280;47645;45.288;12.038;2023-05-02T01:22:14;1012.5039562305849;;;12.7205078125;100
61740;BME280;47645;45.288;12.038;2023-05-02T01:32:15;1012.2968874403954;;;12.6951171875;100
61740;BME280;47645;45.288;12.038;2023-05-02T01:42:17;1012.364535404781;;;12.7001953125;100
61740;BME280;47645;45.288;12.038;2023-05-02T01:52:20;1012.2011906924384;;;12.6849609375;100
61740;BME280;47645;45.288;12.038;2023-05-02T02:02:17;1012.1741319070541;;;12.5625;100
61740;BME280;47645;45.288;12.038;2023-05-02T02:12:23;1012.1103084423273;;;12.57265625;100
61740;BME280;47645;45.288;12.038;2023-05-02T02:22:20;1012.0784110225836;;;12.644140625;100
61740;BME280;47645;45.288;12.038;2023-05-02T02:32:20;1011.9364708417692;;;12.6798828125;100
61740;BME280;47645;45.288;12.038;2023-05-02T02:42:27;1012.0041587413957;;;12.741015625;100
61740;BME280;47645;45.288;12.038;2023-05-02T02:52:27;1011.9807193725042;;;12.55234375;100
61740;BME280;47645;45.288;12.038;2023-05-02T03:02:27;1011.959820735057;;;12.4453125;100
61740;BME280;47645;45.288;12.038;2023-05-02T03:12:24;1011.7818116768607;;;12.3078125;100
61740;BME280;47645;45.288;12.038;2023-05-02T03:22:25;1011.7339854736143;;;12.2720703125;100
61740;BME280;47645;45.288;12.038;2023-05-02T03:32:26;1011.8101553704331;;;12.312890625;100
61740;BME280;47645;45.288;12.038;2023-05-02T03:42:26;1011.7531616046534;;;12.3689453125;100
61740;BME280;47645;45.288;12.038;2023-05-02T03:52:28;1011.9525996524264;;;12.343359375;100
61740;BME280;47645;45.288;12.038;2023-05-02T04:02:29;1011.9679607162911;;;12.3638671875;100
61740;BME280;47645;45.288;12.038;2023-05-02T04:12:30;1012.0553792558588;;;12.4708984375;100
61740;BME280;47645;45.288;12.038;2023-05-02T04:22:30;1012.0605315841584;;;12.4861328125;100
61740;BME280;47645;45.288;12.038;2023-05-02T04:32:31;1012.1361820723797;;;12.5830078125;100
61740;BME280;47645;45.288;12.038;2023-05-02T04:42:32;1012.2101880131684;;;12.644140625;100
61740;BME280;47645;45.288;12.038;2023-05-02T04:52:34;1012.307237219296;;;12.5931640625;100
61740;BME280;47645;45.288;12.038;2023-05-02T05:02:34;1012.373227143252;;;12.567578125;100
61740;BME280;47645;45.288;12.038;2023-05-02T05:12:35;1012.4761308718364;;;12.5982421875;100
61740;BME280;47645;45.288;12.038;2023-05-02T05:22:39;1012.5991502755419;;;12.6798828125;100
61740;BME280;47645;45.288;12.038;2023-05-02T05:32:37;1012.8247960574383;;;12.7103515625;100
61740;BME280;47645;45.288;12.038;2023-05-02T05:42:37;1012.7827126860998;;;12.7765625;100
61740;BME280;47645;45.288;12.038;2023-05-02T05:52:38;1012.8270560364182;;;12.8326171875;100
61740;BME280;47645;45.288;12.038;2023-05-02T06:02:39;1012.8432961279941;;;12.9396484375;100
61740;BME280;47645;45.288;12.038;2023-05-02T06:12:40;1012.888415298895;;;13.0263671875;100
61740;BME280;47645;45.288;12.038;2023-05-02T06:22:41;1012.9300859150427;;;13.0416015625;100
61740;BME280;47645;45.288;12.038;2023-05-02T06:32:43;1013.0189152074423;;;13.1486328125;100
61740;BME280;47645;45.288;12.038;2023-05-02T06:42:43;1013.0595641003135;;;13.1587890625;100
61740;BME280;47645;45.288;12.038;2023-05-02T06:52:44;1013.1209220458773;;;13.102734375;100
61740;BME280;47645;45.288;12.038;2023-05-02T07:02:46;1013.2116038857763;;;13.1384765625;100
61740;BME280;47645;45.288;12.038;2023-05-02T07:12:46;1013.3298075042422;;;13.2046875;100
61740;BME280;47645;45.288;12.038;2023-05-02T07:22:47;1013.3237472805055;;;13.3474609375;100
61740;BME280;47645;45.288;12.038;2023-05-02T07:32:48;1013.5920559698749;;;13.5767578125;100
61740;BME280;47645;45.288;12.038;2023-05-02T07:42:50;1013.562762482788;;;13.6482421875;100
61740;BME280;47645;45.288;12.038;2023-05-02T07:52:49;1013.5756151862852;;;13.714453125;100
61740;BME280;47645;45.288;12.038;2023-05-02T08:02:50;1013.6850319270197;;;14.015234375;100
61740;BME280;47645;45.288;12.038;2023-05-02T08:12:51;1013.7726784485468;;;14.025390625;100
61740;BME280;47645;45.288;12.038;2023-05-02T08:22:52;1013.7966831610693;;;13.7958984375;100
61740;BME280;47645;45.288;12.038;2023-05-02T08:32:53;1013.8897661363537;;;13.7908203125;100
61740;BME280;47645;45.288;12.038;2023-05-02T08:42:54;1014.1110585955939;;;13.7908203125;100
61740;BME280;47645;45.288;12.038;2023-05-02T08:52:55;1014.1378937344998;;;13.9693359375;100
61740;BME280;47645;45.288;12.038;2023-05-02T09:03:05;1014.2810677479428;;;13.9896484375;100
61740;BME280;47645;45.288;12.038;2023-05-02T09:12:56;1014.3039083402581;;;14.12734375;100
61740;BME280;47645;45.288;12.038;2023-05-02T09:22:57;1014.3978411101828;;;14.1935546875;100
61740;BME280;47645;45.288;12.038;2023-05-02T09:32:58;1014.4152245273067;;;14.229296875;100
61740;BME280;47645;45.288;12.038;2023-05-02T09:43:13;1014.5236505103359;;;14.275;100
61740;BME280;47645;45.288;12.038;2023-05-02T09:53:01;1014.5038616930387;;;14.371875;100
61740;BME280;47645;45.288;12.038;2023-05-02T10:03:01;1014.6062889715145;;;14.55546875;100
61740;BME280;47645;45.288;12.038;2023-05-02T10:13:03;1014.676496864431;;;14.6115234375;100
61740;BME280;47645;45.288;12.038;2023-05-02T10:23:03;1014.682868237234;;;14.657421875;100
61740;BME280;47645;45.288;12.038;2023-05-02T10:33:05;1014.6466015384302;;;15.3607421875;100
61740;BME280;47645;45.288;12.038;2023-05-02T10:43:05;1014.7500080012998;;;15.6564453125;100
61740;BME280;47645;45.288;12.038;2023-05-02T10:53:21;1014.7766138637011;;;15.9927734375;100
61740;BME280;47645;45.288;12.038;2023-05-02T11:03:06;1014.8231682542985;;;16.380078125;100
61740;BME280;47645;45.288;12.038;2023-05-02T11:13:08;1014.7728091230825;;;16.278125;100
61740;BME280;47645;45.288;12.038;2023-05-02T11:23:24;1014.8063574793171;;;15.6970703125;100
61740;BME280;47645;45.288;12.038;2023-05-02T11:33:12;1014.9402316694977;;;15.533984375;100
61740;BME280;47645;45.288;12.038;2023-05-02T11:43:12;1015.119429267927;;;15.41171875;100
61740;BME280;47645;45.288;12.038;2023-05-02T11:53:13;1015.0671295858608;;;15.3810546875;100
61740;BME280;47645;45.288;12.038;2023-05-02T12:03:21;1015.0397188540474;;;15.3759765625;100
61740;BME280;47645;45.288;12.038;2023-05-02T12:13:13;1015.1062509782809;;;15.5951171875;100
61740;BME280;47645;45.288;12.038;2023-05-02T12:23:14;1015.1506187847465;;;15.4421875;100
61740;BME280;47645;45.288;12.038;2023-05-02T12:33:17;1015.1178842938527;;;15.523828125;100
61740;BME280;47645;45.288;12.038;2023-05-02T12:43:16;1015.1820325920638;;;15.748046875;100
61740;BME280;47645;45.288;12.038;2023-05-02T12:53:17;1015.2334554813658;;;15.8296875;100
61740;BME280;47645;45.288;12.038;2023-05-02T13:03:18;1015.2986308907606;;;15.6869140625;100
61740;BME280;47645;45.288;12.038;2023-05-02T13:13:19;1015.3455549935244;;;15.7990234375;100
61740;BME280;47645;45.288;12.038;2023-05-02T13:23:20;1015.3520779363803;;;15.5849609375;100
61740;BME280;47645;45.288;12.038;2023-05-02T13:33:21;1015.264510683155;;;15.192578125;100
61740;BME280;47645;45.288;12.038;2023-05-02T13:43:22;1015.3015924431148;;;15.309765625;100
61740;BME280;47645;45.288;12.038;2023-05-02T13:53:22;1015.238178697186;;;15.330078125;100
61740;BME280;47645;45.288;12.038;2023-05-02T14:03:24;1015.2504973778615;;;15.2841796875;100
61740;BME280;47645;45.288;12.038;2023-05-02T14:13:25;1015.3027994643625;;;15.29453125;100
61740;BME280;47645;45.288;12.038;2023-05-02T14:23:28;1015.2303091413088;;;15.19765625;100
61740;BME280;47645;45.288;12.038;2023-05-02T14:33:27;1015.3292475608972;;;15.309765625;100
61740;BME280;47645;45.288;12.038;2023-05-02T14:43:27;1015.4471284156316;;;15.2384765625;100
61740;BME280;47645;45.288;12.038;2023-05-02T14:53:28;1015.5732888569399;;;15.4728515625;100
61740;BME280;47645;45.288;12.038;2023-05-02T15:03:29;1015.5911184953766;;;15.6359375;100
61740;BME280;47645;45.288;12.038;2023-05-02T15:13:31;1015.6502510493192;;;15.43203125;100
61740;BME280;47645;45.288;12.038;2023-05-02T15:23:31;1015.7227571384449;;;15.2486328125;100
61740;BME280;47645;45.288;12.038;2023-05-02T15:33:33;1015.7264557611581;;;15.1875;100
61740;BME280;47645;45.288;12.038;2023-05-02T15:43:33;1015.7376566070393;;;15.2587890625;100
61740;BME280;47645;45.288;12.038;2023-05-02T15:53:39;1015.8244895084539;;;15.3404296875;100
61740;BME280;47645;45.288;12.038;2023-05-02T16:03:36;1015.875045749193;;;15.309765625;100
61740;BME280;47645;45.288;12.038;2023-05-02T16:13:36;1015.8884334886569;;;15.3759765625;100
61740;BME280;47645;45.288;12.038;2023-05-02T16:23:37;1015.8695628485158;;;15.416796875;100
61740;BME280;47645;45.288;12.038;2023-05-02T16:33:38;1015.8725859572633;;;15.3810546875;100
61740;BME280;47645;45.288;12.038;2023-05-02T16:43:39;1015.9695683180122;;;14.9326171875;100
61740;BME280;47645;45.288;12.038;2023-05-02T16:53:40;1016.0940267124056;;;14.9580078125;100
61740;BME280;47645;45.288;12.038;2023-05-02T17:03:41;1016.1648827185263;;;14.9326171875;100
61740;BME280;47645;45.288;12.038;2023-05-02T17:13:43;1016.1637517093454;;;14.912109375;100
61740;BME280;47645;45.288;12.038;2023-05-02T17:23:43;1016.2327707527868;;;14.57578125;100
61740;BME280;47645;45.288;12.038;2023-05-02T17:33:44;1016.3545966124606;;;14.376953125;100
61740;BME280;47645;45.288;12.038;2023-05-02T17:43:45;1016.51167402568;;;14.1986328125;100
61740;BME280;47645;45.288;12.038;2023-05-02T17:53:46;1016.5415351381774;;;14.2853515625;100
61740;BME280;47645;45.288;12.038;2023-05-02T18:03:48;1016.6087529125261;;;14.1884765625;100
61740;BME280;47645;45.288;12.038;2023-05-02T18:13:49;1016.7285779618763;;;14.2037109375;100
61740;BME280;47645;45.288;12.038;2023-05-02T18:23:48;1016.8185817336825;;;14.122265625;100
61740;BME280;47645;45.288;12.038;2023-05-02T18:33:52;1016.9387995795993;;;14.0203125;100
61740;BME280;47645;45.288;12.038;2023-05-02T18:43:50;1017.1107703332486;;;13.8623046875;100
61740;BME280;47645;45.288;12.038;2023-05-02T18:53:51;1017.2171464813687;;;13.8724609375;100
61740;BME280;47645;45.288;12.038;2023-05-02T19:03:52;1017.3309138657822;;;13.9234375;100
61740;BME280;47645;45.288;12.038;2023-05-02T19:13:56;1017.3798919131239;;;14.1169921875;100
61740;BME280;47645;45.288;12.038;2023-05-02T19:23:56;1017.5423772009913;;;13.9234375;100
61740;BME280;47645;45.288;12.038;2023-05-02T19:33:55;1017.6537328205483;;;13.709375;100
61740;BME280;47645;45.288;12.038;2023-05-02T19:43:58;1017.7416567940222;;;13.5666015625;100
61740;BME280;47645;45.288;12.038;2023-05-02T19:53:59;1017.8992586199171;;;13.704296875;100
61740;BME280;47645;45.288;12.038;2023-05-02T20:03:58;1017.90526806399;;;13.694140625;100
61740;BME280;47645;45.288;12.038;2023-05-02T20:13:59;1017.9965602414953;;;13.7603515625;100
61740;BME280;47645;45.288;12.038;2023-05-02T20:23:59;1018.104739742355;;;13.709375;100
61740;BME280;47645;45.288;12.038;2023-05-02T20:34:01;1018.1289204452487;;;13.4544921875;100
61740;BME280;47645;45.288;12.038;2023-05-02T20:44:03;1018.194582977365;;;13.423828125;100
61740;BME280;47645;45.288;12.038;2023-05-02T20:54:04;1018.2050328377446;;;13.3576171875;100
61740;BME280;47645;45.288;12.038;2023-05-02T21:04:03;1018.1673317577068;;;13.2607421875;100
61740;BME280;47645;45.288;12.038;2023-05-02T21:14:06;1018.1491951418673;;;13.3322265625;100
61740;BME280;47645;45.288;12.038;2023-05-02T21:24:06;1018.2012360271568;;;13.403515625;100
61740;BME280;47645;45.288;12.038;2023-05-02T21:34:06;1018.1950967123745;;;13.27109375;100
61740;BME280;47645;45.288;12.038;2023-05-02T21:44:09;1018.2056792495839;;;13.316796875;100
61740;BME280;47645;45.288;12.038;2023-05-02T21:54:07;1018.3377883880838;;;13.40859375;100
61740;BME280;47645;45.288;12.038;2023-05-02T22:04:10;1018.3869816388855;;;13.4595703125;100
61740;BME280;47645;45.288;12.038;2023-05-02T22:14:10;1018.4821915134057;;;13.500390625;100
61740;BME280;47645;45.288;12.038;2023-05-02T22:24:10;1018.5177852142317;;;13.3474609375;100
61740;BME280;47645;45.288;12.038;2023-05-02T22:34:11;1018.6385148882896;;;13.3220703125;100
61740;BME280;47645;45.288;12.038;2023-05-02T22:44:12;1018.569936368791;;;13.4494140625;100
61740;BME280;47645;45.288;12.038;2023-05-02T22:54:14;1018.5506256856304;;;13.4392578125;100
61740;BME280;47645;45.288;12.038;2023-05-02T23:04:14;1018.5844414663318;;;13.5361328125;100
61740;BME280;47645;45.288;12.038;2023-05-02T23:14:14;1018.5943804728512;;;13.6431640625;100
61740;BME280;47645;45.288;12.038;2023-05-02T23:24:15;1018.4928978265801;;;13.73984375;100
61740;BME280;47645;45.288;12.038;2023-05-02T23:34:16;1018.5387438816672;;;13.50546875;100
61740;BME280;47645;45.288;12.038;2023-05-02T23:44:17;1018.624035387236;;;13.48515625;100
61740;BME280;47645;45.288;12.038;2023-05-02T23:54:18;1018.4878739801834;;;13.530859375;100
